Seven Island Tairyo — JJ3885 — position and weather

sailwx.info

Track history (hours):
 
Tides and Currents Weather Stations Pressure Air Temp Water Temp Dewpoint Dewpoint Depression Visibility Wind Speed Wind Dir Waves Ship Positions

Seven Island Tairyo

Last reported at 2017-Nov-20 00:30 UTC. Time now 2017-Nov-22 07:19 UTC.
Position N 35°07' E 139°43'.

Length 22 m; draft 5.4 m.

Type: Passenger vessel. MMSI: 431602169.

Date/timePositionNaut miles runAvg speedWind from/ knotsBaromVisibWave heightAir tempDewpointWater temp
2017-Nov-20 00:30N 35°07' E 139°43'1938.5
2017-Nov-20 00:00N 35°26' E 139°48'1326.3
2017-Nov-19 23:31N 35°39' E 139°46'1 2.3
2017-Nov-19 23:00N 35°38' E 139°45'0 0.0
2017-Nov-19 22:30N 35°38' E 139°45'0 0.0
2017-Nov-19 22:00N 35°38' E 139°45'1 0.0
2017-Nov-18 07:33N 35°39' E 139°46'432.2
2017-Nov-18 07:25N 35°35' E 139°48'1538.3
2017-Nov-18 07:01N 35°20' E 139°45'1836.4
2017-Nov-18 06:30N 35°02' E 139°40'10 1.7
2017-Nov-18 00:45N 34°55' E 139°32'1038.7
2017-Nov-18 00:31N 35°02' E 139°40'1835.4
2017-Nov-18 00:01N 35°19' E 139°45'1835.0
2017-Nov-17 23:30N 35°37' E 139°46'1 0.1
2017-Nov-17 07:32N 35°36' E 139°47'140.7
2017-Nov-17 07:30N 35°35' E 139°48'1734.9
2017-Nov-17 07:01N 35°17' E 139°46'1836.3
2017-Nov-17 06:30N 35°00' E 139°37'2 0.1
2017-Nov-16 05:29N 34°60' E 139°40'1837.0
2017-Nov-16 04:59N 35°18' E 139°45'2116.9
2017-Nov-16 03:43N 35°39' E 139°46'838.1
2017-Nov-16 03:30N 35°32' E 139°50'1937.3
2017-Nov-16 03:00N 35°13' E 139°47'18 8.4
2017-Nov-16 00:49N 34°58' E 139°35'1239.6
2017-Nov-16 00:30N 35°07' E 139°44'1938.0
2017-Nov-16 00:01N 35°26' E 139°48'12 0.3
2017-Nov-14 07:41N 35°38' E 139°46'1 2.0
2017-Nov-14 07:16N 35°39' E 139°46'934.1
2017-Nov-14 07:00N 35°31' E 139°49'1836.5
2017-Nov-14 06:31N 35°13' E 139°47'19 9.9
2017-Nov-14 04:35N 34°57' E 139°35'337.4
2017-Nov-14 04:30N 34°59' E 139°37'1938.1
2017-Nov-14 04:01N 35°16' E 139°47'18 0.4
2017-Nov-12 05:28N 34°60' E 139°38'1838.2
2017-Nov-12 05:00N 35°16' E 139°46'1913.3
2017-Nov-12 03:36N 35°35' E 139°48'439.7
2017-Nov-12 03:30N 35°32' E 139°50'1938.1
2017-Nov-12 03:01N 35°13' E 139°47'2010.9
2017-Nov-12 01:12N 34°57' E 139°34'838.9
2017-Nov-12 01:01N 35°02' E 139°40'1121.3
2017-Nov-12 00:29N 35°13' E 139°43'1428.8
2017-Nov-12 00:00N 35°26' E 139°48'1314.8
2017-Nov-11 23:10N 35°39' E 139°46'4 0.2
2017-Nov-11 07:33N 35°35' E 139°48'238.5
2017-Nov-11 07:30N 35°34' E 139°49'1835.5
2017-Nov-11 07:01N 35°16' E 139°46'4 7.3
2017-Nov-11 06:31N 35°13' E 139°44'3212.8
2017-Nov-11 04:01N 35°05' E 139°06'22 1.0
2017-Nov-10 05:36N 34°59' E 139°33'440.2
2017-Nov-10 05:30N 35°01' E 139°37'1936.4
2017-Nov-10 05:00N 35°18' E 139°45'1713.6
2017-Nov-10 03:43N 35°35' E 139°48'835.3
2017-Nov-10 03:31N 35°28' E 139°48'1836.6
2017-Nov-10 03:00N 35°09' E 139°46'15 6.9
2017-Nov-10 00:50N 34°58' E 139°34'  
Track history (hours):
 
Tides and Currents Weather Stations Pressure Air Temp Water Temp Dewpoint Dewpoint Depression Visibility Wind Speed Wind Dir Waves Ship Positions

Seven Island Tairyo

Last reported at 2017-Nov-20 00:30 UTC. Time now 2017-Nov-22 07:19 UTC.
Position N 35°07' E 139°43'.

Length 22 m; draft 5.4 m.

Type: Passenger vessel. MMSI: 431602169.

Date/timePositionNaut miles runAvg speedWind from/ knotsBaromVisibWave heightAir tempDewpointWater temp
2017-Nov-20 00:30N 35°07' E 139°43'1938.5
2017-Nov-20 00:00N 35°26' E 139°48'1326.3
2017-Nov-19 23:31N 35°39' E 139°46'1 2.3
2017-Nov-19 23:00N 35°38' E 139°45'0 0.0
2017-Nov-19 22:30N 35°38' E 139°45'0 0.0
2017-Nov-19 22:00N 35°38' E 139°45'1 0.0
2017-Nov-18 07:33N 35°39' E 139°46'432.2
2017-Nov-18 07:25N 35°35' E 139°48'1538.3
2017-Nov-18 07:01N 35°20' E 139°45'1836.4
2017-Nov-18 06:30N 35°02' E 139°40'10 1.7
2017-Nov-18 00:45N 34°55' E 139°32'1038.7
2017-Nov-18 00:31N 35°02' E 139°40'1835.4
2017-Nov-18 00:01N 35°19' E 139°45'1835.0
2017-Nov-17 23:30N 35°37' E 139°46'1 0.1
2017-Nov-17 07:32N 35°36' E 139°47'140.7
2017-Nov-17 07:30N 35°35' E 139°48'1734.9
2017-Nov-17 07:01N 35°17' E 139°46'1836.3
2017-Nov-17 06:30N 35°00' E 139°37'2 0.1
2017-Nov-16 05:29N 34°60' E 139°40'1837.0
2017-Nov-16 04:59N 35°18' E 139°45'2116.9
2017-Nov-16 03:43N 35°39' E 139°46'838.1
2017-Nov-16 03:30N 35°32' E 139°50'1937.3
2017-Nov-16 03:00N 35°13' E 139°47'18 8.4
2017-Nov-16 00:49N 34°58' E 139°35'1239.6
2017-Nov-16 00:30N 35°07' E 139°44'1938.0
2017-Nov-16 00:01N 35°26' E 139°48'12 0.3
2017-Nov-14 07:41N 35°38' E 139°46'1 2.0
2017-Nov-14 07:16N 35°39' E 139°46'934.1
2017-Nov-14 07:00N 35°31' E 139°49'1836.5
2017-Nov-14 06:31N 35°13' E 139°47'19 9.9
2017-Nov-14 04:35N 34°57' E 139°35'337.4
2017-Nov-14 04:30N 34°59' E 139°37'1938.1
2017-Nov-14 04:01N 35°16' E 139°47'18 0.4
2017-Nov-12 05:28N 34°60' E 139°38'1838.2
2017-Nov-12 05:00N 35°16' E 139°46'1913.3
2017-Nov-12 03:36N 35°35' E 139°48'439.7
2017-Nov-12 03:30N 35°32' E 139°50'1938.1
2017-Nov-12 03:01N 35°13' E 139°47'2010.9
2017-Nov-12 01:12N 34°57' E 139°34'838.9
2017-Nov-12 01:01N 35°02' E 139°40'1121.3
2017-Nov-12 00:29N 35°13' E 139°43'1428.8
2017-Nov-12 00:00N 35°26' E 139°48'1314.8
2017-Nov-11 23:10N 35°39' E 139°46'4 0.2
2017-Nov-11 07:33N 35°35' E 139°48'238.5
2017-Nov-11 07:30N 35°34' E 139°49'1835.5
2017-Nov-11 07:01N 35°16' E 139°46'4 7.3
2017-Nov-11 06:31N 35°13' E 139°44'3212.8
2017-Nov-11 04:01N 35°05' E 139°06'22 1.0
2017-Nov-10 05:36N 34°59' E 139°33'440.2
2017-Nov-10 05:30N 35°01' E 139°37'1936.4
2017-Nov-10 05:00N 35°18' E 139°45'1713.6
2017-Nov-10 03:43N 35°35' E 139°48'835.3
2017-Nov-10 03:31N 35°28' E 139°48'1836.6
2017-Nov-10 03:00N 35°09' E 139°46'15 6.9
2017-Nov-10 00:50N 34°58' E 139°34'  

Dump ship's entire track history